createdAt,value
2022-12-04T00:00:35.277Z,100860.19
2022-12-04T00:03:04.964Z,100865.47
2022-12-04T00:05:34.541Z,100864.47
2022-12-04T00:08:04.154Z,100861.81
2022-12-04T00:10:33.714Z,100864.47
2022-12-04T00:13:04.102Z,100872.63
2022-12-04T00:15:35.566Z,100876.53
2022-12-04T00:18:05.446Z,100863.81
2022-12-04T00:20:35.104Z,100863.75
2022-12-04T00:23:04.673Z,100872.78
2022-12-04T00:25:39.246Z,100870.34
2022-12-04T00:28:10.669Z,100870.78
2022-12-04T00:30:43.849Z,100876.06
2022-12-04T00:33:13.525Z,100870.69
2022-12-04T00:35:43.066Z,100871.47
2022-12-04T00:38:12.690Z,100871.78
2022-12-04T00:40:49.422Z,100861.91
2022-12-04T00:43:19.176Z,100864.59
2022-12-04T00:45:50.211Z,100877.53
2022-12-04T00:48:19.998Z,100856.25
2022-12-04T00:50:49.838Z,100859.66
2022-12-04T00:53:19.350Z,100862.75
2022-12-04T00:55:48.932Z,100866.78
2022-12-04T00:58:18.472Z,100880.38
2022-12-04T01:00:48.115Z,100872.78
2022-12-04T01:03:19.220Z,100869.34
2022-12-04T01:05:48.956Z,100868.34
2022-12-04T01:08:18.528Z,100868.28
2022-12-04T01:10:48.173Z,100866.47
2022-12-04T01:13:18.512Z,100870.69
2022-12-04T01:15:49.292Z,100874.50
2022-12-04T01:18:20.240Z,100869.44
2022-12-04T01:20:50.474Z,100864.75
2022-12-04T01:23:20.557Z,100873.28
2022-12-04T01:25:54.096Z,100865.41
2022-12-04T01:28:23.851Z,100872.78
2022-12-04T01:31:00.653Z,100871.78
2022-12-04T01:33:32.451Z,100868.19
2022-12-04T01:36:02.773Z,100859.59
2022-12-04T01:38:32.674Z,100864.91
2022-12-04T01:41:02.203Z,100862.09
2022-12-04T01:43:33.091Z,100867.53
2022-12-04T01:46:02.997Z,100862.31
2022-12-04T01:48:35.196Z,100864.06
2022-12-04T01:51:08.193Z,100858.53
2022-12-04T01:53:39.573Z,100851.81
2022-12-04T01:56:09.743Z,100858.75
2022-12-04T01:58:42.574Z,100858.03
2022-12-04T02:01:12.182Z,100861.41
2022-12-04T02:03:43.669Z,100857.75
2022-12-04T02:06:13.415Z,100858.03
2022-12-04T02:08:42.927Z,100854.16
2022-12-04T02:11:18.995Z,100856.88
2022-12-04T02:13:53.748Z,100854.44
2022-12-04T02:16:26.341Z,100850.50
2022-12-04T02:19:00.247Z,100849.94
2022-12-04T02:21:33.064Z,100853.06
2022-12-04T02:24:17.861Z,100840.69
2022-12-04T02:26:50.463Z,100847.94
2022-12-04T02:29:28.072Z,100846.94
2022-12-04T02:32:00.680Z,100848.31
2022-12-04T02:34:31.534Z,100843.56
2022-12-04T02:37:04.029Z,100848.84
2022-12-04T02:39:36.652Z,100846.50
2022-12-04T02:42:09.409Z,100840.50
2022-12-04T02:44:42.939Z,100844.78
2022-12-04T02:47:14.325Z,100849.22
2022-12-04T02:49:46.157Z,100848.47
2022-12-04T02:52:17.339Z,100842.94
2022-12-04T02:54:49.373Z,100843.16
2022-12-04T02:57:21.493Z,100848.53
2022-12-04T02:59:53.895Z,100842.78
2022-12-04T03:02:26.455Z,100849.06
2022-12-04T03:04:57.253Z,100850.72
2022-12-04T03:07:31.684Z,100851.44
2022-12-04T03:10:02.706Z,100852.66
2022-12-04T03:12:38.644Z,100852.19
2022-12-04T03:15:13.653Z,100851.81
2022-12-04T03:17:47.617Z,100854.38
2022-12-04T03:20:18.542Z,100848.16
2022-12-04T03:22:51.436Z,100846.66
2022-12-04T03:25:20.955Z,100852.72
2022-12-04T03:27:53.098Z,100859.75
2022-12-04T03:30:24.451Z,100846.28
2022-12-04T03:32:56.533Z,100856.78
2022-12-04T03:35:27.815Z,100857.53
2022-12-04T03:37:59.961Z,100856.53
2022-12-04T03:40:31.565Z,100855.88
2022-12-04T03:43:05.460Z,100843.69
2022-12-04T03:45:41.556Z,100851.03
2022-12-04T03:48:16.790Z,100848.94
2022-12-04T03:50:53.043Z,100856.53
2022-12-04T03:53:26.944Z,100858.38
2022-12-04T03:56:01.883Z,100861.63
2022-12-04T03:58:33.220Z,100858.03
2022-12-04T04:01:05.796Z,100861.91
2022-12-04T04:03:36.540Z,100858.91
2022-12-04T04:06:10.436Z,100860.31
2022-12-04T04:08:41.029Z,100864.59
2022-12-04T04:11:13.003Z,100861.63
2022-12-04T04:14:03.380Z,100858.75
2022-12-04T04:16:54.359Z,100857.94
2022-12-04T04:19:42.101Z,100865.13
2022-12-04T04:22:29.492Z,100863.25
2022-12-04T04:25:02.682Z,100870.34
2022-12-04T04:27:32.510Z,100870.66
2022-12-04T04:30:02.356Z,100867.06
2022-12-04T04:32:36.719Z,100867.63
2022-12-04T04:35:10.892Z,100862.63
2022-12-04T04:37:45.246Z,100867.53
2022-12-04T04:40:15.622Z,100863.06
2022-12-04T04:42:50.505Z,100861.47
2022-12-04T04:45:23.255Z,100867.63
2022-12-04T04:47:56.746Z,100871.13
2022-12-04T04:50:26.836Z,100871.94
2022-12-04T04:52:59.586Z,100871.00
2022-12-04T04:55:29.540Z,100874.56
2022-12-04T04:58:07.180Z,100866.47
2022-12-04T05:00:37.664Z,100861.31
2022-12-04T05:03:08.715Z,100874.34
2022-12-04T05:05:38.210Z,100881.72
2022-12-04T05:08:07.940Z,100874.50
2022-12-04T05:10:37.628Z,100880.38
2022-12-04T05:13:08.023Z,100884.75
2022-12-04T05:15:38.086Z,100888.28
2022-12-04T05:18:09.141Z,100888.75
2022-12-04T05:20:38.472Z,100878.22
2022-12-04T05:23:08.424Z,100877.72
2022-12-04T05:25:38.023Z,100889.81
2022-12-04T05:28:07.832Z,100891.75
2022-12-04T05:30:37.344Z,100889.25
2022-12-04T05:33:06.932Z,100884.81
2022-12-04T05:35:37.766Z,100880.16
2022-12-04T05:38:07.304Z,100894.84
2022-12-04T05:40:37.386Z,100892.13
2022-12-04T05:43:06.906Z,100901.13
2022-12-04T05:45:36.445Z,100893.56
2022-12-04T05:48:06.109Z,100891.53
2022-12-04T05:50:37.041Z,100889.81
2022-12-04T05:53:06.584Z,100898.41
2022-12-04T05:55:36.472Z,100903.41
2022-12-04T05:58:05.989Z,100908.09
2022-12-04T06:00:35.825Z,100909.94
2022-12-04T06:03:05.498Z,100912.50
2022-12-04T06:05:35.234Z,100911.75
2022-12-04T06:08:06.383Z,100914.53
2022-12-04T06:10:35.957Z,100912.28
2022-12-04T06:13:05.995Z,100919.75
2022-12-04T06:15:38.360Z,100917.53
2022-12-04T06:18:08.125Z,100923.78
2022-12-04T06:20:37.685Z,100926.75
2022-12-04T06:23:08.787Z,100923.34
2022-12-04T06:25:38.431Z,100931.22
2022-12-04T06:28:08.407Z,100927.34
2022-12-04T06:30:38.113Z,100931.44
2022-12-04T06:33:07.626Z,100928.41
2022-12-04T06:35:37.307Z,100934.78
2022-12-04T06:38:08.246Z,100946.03
2022-12-04T06:40:40.636Z,100937.34
2022-12-04T06:43:10.089Z,100945.75
2022-12-04T06:45:39.893Z,100939.22
2022-12-04T06:48:09.443Z,100951.13
2022-12-04T06:50:39.016Z,100952.25
2022-12-04T06:53:10.030Z,100950.25
2022-12-04T06:55:39.581Z,100951.72
2022-12-04T06:58:09.261Z,100950.94
2022-12-04T07:00:39.223Z,100952.00
2022-12-04T07:03:09.138Z,100955.97
2022-12-04T07:05:38.878Z,100942.41
2022-12-04T07:08:08.561Z,100953.13
2022-12-04T07:10:40.195Z,100948.59
2022-12-04T07:13:10.352Z,100953.25
2022-12-04T07:15:40.678Z,100962.38
2022-12-04T07:18:11.027Z,100954.25
2022-12-04T07:20:41.068Z,100952.69
2022-12-04T07:23:10.608Z,100949.75
2022-12-04T07:25:41.917Z,100955.56
2022-12-04T07:28:11.481Z,100950.88
2022-12-04T07:30:41.091Z,100954.97
2022-12-04T07:33:11.477Z,100954.69
2022-12-04T07:35:41.053Z,100955.41
2022-12-04T07:38:10.919Z,100962.34
2022-12-04T07:40:41.901Z,100959.75
2022-12-04T07:43:11.492Z,100962.03
2022-12-04T07:45:41.461Z,100968.09
2022-12-04T07:48:11.079Z,100973.22
2022-12-04T07:50:42.057Z,100974.00
2022-12-04T07:53:12.020Z,100974.72
2022-12-04T07:55:43.003Z,100971.19
2022-12-04T07:58:12.818Z,100978.28
2022-12-04T08:00:42.611Z,100975.34
2022-12-04T08:03:12.365Z,100982.53
2022-12-04T08:05:41.942Z,100982.44
2022-12-04T08:08:11.677Z,100984.88
2022-12-04T08:10:41.506Z,100979.72
2022-12-04T08:13:13.285Z,100978.84
2022-12-04T08:15:43.366Z,100976.84
2022-12-04T08:18:13.694Z,100973.13
2022-12-04T08:20:43.481Z,100977.63
2022-12-04T08:23:13.238Z,100973.19
2022-12-04T08:25:43.293Z,100974.03
2022-12-04T08:28:14.611Z,100974.13
2022-12-04T08:30:44.553Z,100970.47
2022-12-04T08:33:15.110Z,100973.91
2022-12-04T08:35:45.450Z,100975.47
2022-12-04T08:38:15.962Z,100976.13
2022-12-04T08:40:46.354Z,100973.75
2022-12-04T08:43:17.702Z,100971.81
2022-12-04T08:45:55.687Z,100961.84
2022-12-04T08:48:26.132Z,100968.09
2022-12-04T08:50:56.184Z,100956.53
2022-12-04T08:53:25.964Z,100962.88
2022-12-04T08:55:56.273Z,100956.69
2022-12-04T08:58:28.006Z,100958.47
2022-12-04T09:00:58.723Z,100964.56
2022-12-04T09:03:31.057Z,100958.72
2022-12-04T09:06:02.324Z,100952.34
2022-12-04T09:08:33.450Z,100957.56
2022-12-04T09:11:04.778Z,100951.44
2022-12-04T09:13:37.575Z,100948.19
2022-12-04T09:16:09.463Z,100956.13
2022-12-04T09:18:40.982Z,100954.09
2022-12-04T09:21:13.479Z,100961.75
2022-12-04T09:23:44.454Z,100961.56
2022-12-04T09:26:20.478Z,100958.19
2022-12-04T09:28:53.117Z,100957.31
2022-12-04T09:31:24.175Z,100953.19
2022-12-04T09:33:55.109Z,100947.88
2022-12-04T09:36:25.794Z,100942.66
2022-12-04T09:38:56.470Z,100928.75
2022-12-04T09:41:35.998Z,100938.19
2022-12-04T09:44:29.768Z,100934.63
2022-12-04T09:47:02.646Z,100929.00
2022-12-04T09:49:38.798Z,100927.50
2022-12-04T09:52:11.266Z,100923.69
2022-12-04T09:54:44.789Z,100911.94
2022-12-04T09:57:18.410Z,100914.59
2022-12-04T09:59:51.370Z,100909.19
2022-12-04T10:02:30.772Z,100909.28
2022-12-04T10:05:01.966Z,100901.88
2022-12-04T10:07:34.675Z,100904.22
2022-12-04T10:10:08.468Z,100898.44
2022-12-04T10:12:44.205Z,100894.09
2022-12-04T10:15:24.133Z,100892.97
2022-12-04T10:18:15.866Z,100883.06
2022-12-04T10:20:56.346Z,100881.28
2022-12-04T10:23:33.667Z,100879.41
2022-12-04T10:26:07.948Z,100873.16
2022-12-04T10:28:41.052Z,100867.94
2022-12-04T10:31:16.236Z,100866.91
2022-12-04T10:33:48.973Z,100860.94
2022-12-04T10:36:20.850Z,100854.59
2022-12-04T10:38:54.563Z,100859.03
2022-12-04T10:41:27.545Z,100860.22
2022-12-04T10:43:58.803Z,100860.28
2022-12-04T10:46:32.819Z,100865.59
2022-12-04T10:49:04.787Z,100861.84
2022-12-04T10:51:40.288Z,100861.13
2022-12-04T10:54:18.268Z,100858.97
2022-12-04T10:56:53.243Z,100861.63
2022-12-04T10:59:24.674Z,100854.13
2022-12-04T11:02:06.701Z,100852.25
2022-12-04T11:04:38.532Z,100846.94
2022-12-04T11:07:11.500Z,100845.31
2022-12-04T11:09:42.487Z,100842.72
2022-12-04T11:12:19.481Z,100834.69
2022-12-04T11:15:01.180Z,100833.59
2022-12-04T11:17:34.483Z,100830.88
2022-12-04T11:20:09.062Z,100838.06
2022-12-04T11:22:50.239Z,100837.72
2022-12-04T11:25:22.467Z,100836.16
2022-12-04T11:27:55.018Z,100830.41
2022-12-04T11:30:28.115Z,100826.50
2022-12-04T11:33:00.000Z,100816.81
2022-12-04T11:35:31.226Z,100810.03
2022-12-04T11:38:04.597Z,100819.63
2022-12-04T11:40:36.381Z,100817.06
2022-12-04T11:43:08.605Z,100820.66
2022-12-04T11:45:39.699Z,100817.16
2022-12-04T11:48:17.361Z,100818.56
2022-12-04T11:50:52.056Z,100812.47
2022-12-04T11:53:25.578Z,100818.00
2022-12-04T11:56:08.278Z,100818.50
2022-12-04T11:58:48.598Z,100807.94
2022-12-04T12:01:26.777Z,100809.06
2022-12-04T12:04:17.843Z,100798.28
2022-12-04T12:06:56.253Z,100805.00
2022-12-04T12:09:31.956Z,100800.47
2022-12-04T12:12:05.109Z,100793.44
2022-12-04T12:14:42.202Z,100792.66
2022-12-04T12:17:16.809Z,100798.75
2022-12-04T12:19:57.514Z,100804.28
2022-12-04T12:22:38.372Z,100790.19
2022-12-04T12:25:18.033Z,100785.72
2022-12-04T12:27:57.854Z,100788.84
2022-12-04T12:30:34.390Z,100787.38
2022-12-04T12:33:10.315Z,100784.56
2022-12-04T12:35:46.372Z,100784.38
2022-12-04T12:38:20.227Z,100786.88
2022-12-04T12:40:53.143Z,100789.53
2022-12-04T12:43:26.855Z,100789.63
2022-12-04T12:46:02.779Z,100795.78
2022-12-04T12:48:38.110Z,100792.19
2022-12-04T12:51:30.696Z,100796.25
2022-12-04T12:54:05.822Z,100793.13
2022-12-04T12:56:47.782Z,100794.31
2022-12-04T12:59:22.947Z,100791.91
2022-12-04T13:02:00.571Z,100800.84
2022-12-04T13:04:34.530Z,100801.09
2022-12-04T13:07:16.563Z,100790.94
2022-12-04T13:09:49.588Z,100792.97
2022-12-04T13:12:21.813Z,100798.13
2022-12-04T13:14:53.077Z,100792.97
2022-12-04T13:17:31.147Z,100794.22
2022-12-04T13:20:09.540Z,100795.16
2022-12-04T13:22:48.057Z,100790.41
2022-12-04T13:25:30.064Z,100803.19
2022-12-04T13:28:07.541Z,100804.75
2022-12-04T13:30:45.757Z,100805.59
2022-12-04T13:33:30.136Z,100808.34
2022-12-04T13:36:25.214Z,100812.63
2022-12-04T13:39:06.195Z,100815.22
2022-12-04T13:41:41.100Z,100807.56
2022-12-04T13:44:15.596Z,100803.50
2022-12-04T13:46:51.732Z,100811.84
2022-12-04T13:49:27.282Z,100824.56
2022-12-04T13:52:01.361Z,100812.06
2022-12-04T13:54:34.956Z,100817.94
2022-12-04T13:57:18.976Z,100817.09
2022-12-04T13:59:50.118Z,100826.13
2022-12-04T14:02:25.380Z,100830.72
2022-12-04T14:05:01.405Z,100824.56
2022-12-04T14:07:34.245Z,100822.00
2022-12-04T14:10:08.523Z,100826.56
2022-12-04T14:12:43.356Z,100822.69
2022-12-04T14:15:23.079Z,100829.03
2022-12-04T14:17:59.146Z,100823.25
2022-12-04T14:20:31.844Z,100830.97
2022-12-04T14:23:08.843Z,100820.44
2022-12-04T14:25:41.257Z,100816.22
2022-12-04T14:28:15.087Z,100814.44
2022-12-04T14:30:45.300Z,100815.28
2022-12-04T14:33:18.903Z,100812.78
2022-12-04T14:35:50.797Z,100818.69
2022-12-04T14:38:22.092Z,100814.88
2022-12-04T14:40:56.286Z,100822.16
2022-12-04T14:43:27.003Z,100819.59
2022-12-04T14:45:59.723Z,100815.97
2022-12-04T14:48:33.933Z,100814.66
2022-12-04T14:51:07.413Z,100809.19
2022-12-04T14:53:41.534Z,100808.50
2022-12-04T14:56:28.757Z,100819.78
2022-12-04T14:59:06.115Z,100820.91
2022-12-04T15:01:37.639Z,100821.91
2022-12-04T15:04:11.560Z,100825.25
2022-12-04T15:06:41.359Z,100822.31
2022-12-04T15:09:34.809Z,100823.63
2022-12-04T15:12:33.180Z,100825.41
2022-12-04T15:15:12.465Z,100826.28
2022-12-04T15:17:42.270Z,100827.22
2022-12-04T15:20:12.761Z,100832.69
2022-12-04T15:22:42.333Z,100828.88
2022-12-04T15:25:19.510Z,100832.13
2022-12-04T15:27:50.361Z,100833.44
2022-12-04T15:30:22.498Z,100830.72
2022-12-04T15:32:53.888Z,100829.78
2022-12-04T15:35:25.722Z,100834.09
2022-12-04T15:37:56.101Z,100828.13
2022-12-04T15:40:27.023Z,100823.78
2022-12-04T15:43:07.093Z,100800.88
2022-12-04T15:45:38.762Z,100809.50
2022-12-04T15:48:08.305Z,100805.75
2022-12-04T15:50:38.157Z,100812.78
2022-12-04T15:53:09.000Z,100811.84
2022-12-04T15:55:40.876Z,100817.94
2022-12-04T15:58:19.712Z,100826.81
2022-12-04T16:00:55.059Z,100831.50
2022-12-04T16:03:26.505Z,100827.63
2022-12-04T16:06:06.868Z,100822.06
2022-12-04T16:08:37.626Z,100825.72
2022-12-04T16:11:08.214Z,100820.34
2022-12-04T16:13:39.633Z,100824.66
2022-12-04T16:16:13.782Z,100826.50
2022-12-04T16:18:44.327Z,100834.16
2022-12-04T16:21:16.204Z,100833.38
2022-12-04T16:23:46.029Z,100831.34
2022-12-04T16:26:16.505Z,100836.81
2022-12-04T16:28:46.089Z,100838.22
2022-12-04T16:31:19.409Z,100839.38
2022-12-04T16:33:49.039Z,100834.75
2022-12-04T16:36:18.733Z,100836.66
2022-12-04T16:38:48.416Z,100840.91
2022-12-04T16:41:18.824Z,100826.41
2022-12-04T16:43:53.437Z,100829.84
2022-12-04T16:46:25.226Z,100836.09
2022-12-04T16:48:54.939Z,100837.56
2022-12-04T16:51:26.045Z,100841.31
2022-12-04T16:53:55.831Z,100844.84
2022-12-04T16:56:25.526Z,100843.97
2022-12-04T16:58:55.185Z,100852.84
2022-12-04T17:01:27.440Z,100851.91
2022-12-04T17:03:57.409Z,100858.00
2022-12-04T17:06:27.086Z,100857.13
2022-12-04T17:08:56.912Z,100859.88
2022-12-04T17:11:26.601Z,100859.63
2022-12-04T17:13:57.052Z,100859.00
2022-12-04T17:16:29.533Z,100861.59
2022-12-04T17:18:59.392Z,100867.72
2022-12-04T17:21:29.196Z,100876.00
2022-12-04T17:23:58.686Z,100874.91
2022-12-04T17:26:28.421Z,100881.06
2022-12-04T17:28:57.892Z,100877.66
2022-12-04T17:31:28.917Z,100880.91
2022-12-04T17:33:58.578Z,100880.91
2022-12-04T17:36:28.561Z,100881.63
2022-12-04T17:38:58.909Z,100878.25
2022-12-04T17:41:28.869Z,100881.44
2022-12-04T17:44:00.332Z,100876.69
2022-12-04T17:46:31.769Z,100874.84
2022-12-04T17:49:06.623Z,100876.06
2022-12-04T17:51:37.075Z,100876.06
2022-12-04T17:54:07.195Z,100866.41
2022-12-04T17:56:36.806Z,100866.88
2022-12-04T17:59:06.940Z,100864.09
2022-12-04T18:01:37.894Z,100862.44
2022-12-04T18:04:09.185Z,100867.97
2022-12-04T18:06:40.196Z,100855.44
2022-12-04T18:09:11.425Z,100853.63
2022-12-04T18:11:42.067Z,100860.78
2022-12-04T18:14:12.938Z,100865.25
2022-12-04T18:16:45.299Z,100860.44
2022-12-04T18:19:15.981Z,100858.38
2022-12-04T18:21:45.634Z,100857.47
2022-12-04T18:24:15.344Z,100856.81
2022-12-04T18:26:45.652Z,100857.69
2022-12-04T18:29:16.322Z,100858.38
2022-12-04T18:31:47.651Z,100854.03
2022-12-04T18:34:17.804Z,100852.63
2022-12-04T18:36:47.527Z,100856.13
2022-12-04T18:39:18.254Z,100865.56
2022-12-04T18:41:48.258Z,100865.72
2022-12-04T18:44:18.610Z,100865.72
2022-12-04T18:46:49.964Z,100866.41
2022-12-04T18:49:19.969Z,100867.22
2022-12-04T18:51:50.368Z,100866.25
2022-12-04T18:54:21.622Z,100862.94
2022-12-04T18:56:51.805Z,100872.97
2022-12-04T18:59:22.747Z,100868.31
2022-12-04T19:01:54.427Z,100873.84
2022-12-04T19:04:25.300Z,100870.47
2022-12-04T19:06:55.565Z,100876.00
2022-12-04T19:09:47.406Z,100878.25
2022-12-04T19:12:16.870Z,100877.91
2022-12-04T19:14:46.915Z,100872.88
2022-12-04T19:17:20.174Z,100871.09
2022-12-04T19:19:49.896Z,100871.72
2022-12-04T19:22:19.467Z,100871.03
2022-12-04T19:24:49.122Z,100871.72
2022-12-04T19:27:18.822Z,100873.13
2022-12-04T19:29:48.832Z,100871.19
2022-12-04T19:32:19.841Z,100868.63
2022-12-04T19:34:49.744Z,100872.34
2022-12-04T19:37:19.617Z,100877.78
2022-12-04T19:39:49.267Z,100880.06
2022-12-04T19:42:19.039Z,100870.47
2022-12-04T19:44:49.829Z,100871.09
2022-12-04T19:47:21.618Z,100875.47
2022-12-04T19:49:51.610Z,100880.75
2022-12-04T19:52:21.575Z,100879.13
2022-12-04T19:54:51.366Z,100878.56
2022-12-04T19:57:20.940Z,100876.22
2022-12-04T19:59:50.784Z,100877.00
2022-12-04T20:02:22.105Z,100873.41
2022-12-04T20:04:51.946Z,100866.09
2022-12-04T20:07:21.644Z,100873.19
2022-12-04T20:09:52.568Z,100878.56
2022-12-04T20:12:23.213Z,100877.94
2022-12-04T20:14:54.093Z,100870.69
2022-12-04T20:17:25.618Z,100869.69
2022-12-04T20:19:55.629Z,100867.03
2022-12-04T20:22:25.659Z,100868.63
2022-12-04T20:24:55.580Z,100864.31
2022-12-04T20:27:25.413Z,100864.25
2022-12-04T20:29:55.742Z,100868.63
2022-12-04T20:32:27.040Z,100862.44
2022-12-04T20:34:56.739Z,100859.16
2022-12-04T20:37:26.345Z,100864.41
2022-12-04T20:39:56.341Z,100859.00
2022-12-04T20:42:33.123Z,100853.56
2022-12-04T20:45:03.452Z,100854.78
2022-12-04T20:47:36.373Z,100856.53
2022-12-04T20:50:06.537Z,100847.84
2022-12-04T20:52:36.159Z,100852.13
2022-12-04T20:55:07.005Z,100852.06
2022-12-04T20:57:37.520Z,100851.91
2022-12-04T21:00:07.832Z,100848.56
2022-12-04T21:02:39.165Z,100846.06
2022-12-04T21:05:09.085Z,100842.53
2022-12-04T21:07:38.780Z,100845.28
2022-12-04T21:10:08.851Z,100857.53
2022-12-04T21:12:56.921Z,100860.00
2022-12-04T21:15:46.047Z,100858.09
2022-12-04T21:18:16.973Z,100860.47
2022-12-04T21:20:46.530Z,100864.63
2022-12-04T21:23:16.121Z,100863.50
2022-12-04T21:25:45.945Z,100858.75
2022-12-04T21:28:15.540Z,100862.97
2022-12-04T21:30:45.091Z,100859.88
2022-12-04T21:33:15.125Z,100864.16
2022-12-04T21:35:45.993Z,100865.47
2022-12-04T21:38:15.841Z,100857.75
2022-12-04T21:40:48.971Z,100865.41
2022-12-04T21:43:18.474Z,100870.22
2022-12-04T21:45:56.960Z,100860.75
2022-12-04T21:48:26.477Z,100866.41
2022-12-04T21:50:57.846Z,100865.97
2022-12-04T21:53:27.561Z,100858.69
2022-12-04T21:55:57.283Z,100852.28
2022-12-04T21:58:28.508Z,100853.13
2022-12-04T22:00:58.189Z,100854.72
2022-12-04T22:03:27.709Z,100854.56
2022-12-04T22:06:01.897Z,100852.13
2022-12-04T22:08:31.514Z,100847.84
2022-12-04T22:11:00.972Z,100842.53
2022-12-04T22:13:31.042Z,100845.69
2022-12-04T22:16:03.378Z,100847.47
2022-12-04T22:18:33.607Z,100853.47
2022-12-04T22:21:06.469Z,100846.53
2022-12-04T22:23:36.293Z,100850.19
2022-12-04T22:26:07.055Z,100848.84
2022-12-04T22:28:37.125Z,100846.16
2022-12-04T22:31:07.951Z,100836.00
2022-12-04T22:33:38.219Z,100836.94
2022-12-04T22:36:13.036Z,100842.09
2022-12-04T22:39:06.006Z,100843.81
2022-12-04T22:41:32.421Z,100846.53
2022-12-04T22:44:01.957Z,100845.44
2022-12-04T22:46:31.981Z,100840.63
2022-12-04T22:49:01.759Z,100846.00
2022-12-04T22:51:35.977Z,100844.28
2022-12-04T22:54:08.006Z,100829.06
2022-12-04T22:56:37.576Z,100834.22
2022-12-04T22:59:07.163Z,100834.16
2022-12-04T23:01:36.860Z,100839.97
2022-12-04T23:04:06.405Z,100837.09
2022-12-04T23:06:37.324Z,100827.50
2022-12-04T23:09:08.316Z,100825.56
2022-12-04T23:11:38.567Z,100834.50
2022-12-04T23:14:09.884Z,100831.94
2022-12-04T23:16:40.394Z,100827.44
2022-12-04T23:19:12.221Z,100829.38
2022-12-04T23:21:43.509Z,100827.50
2022-12-04T23:24:13.484Z,100829.22
2022-12-04T23:26:44.092Z,100825.88
2022-12-04T23:29:36.902Z,100820.56
2022-12-04T23:32:04.014Z,100824.22
2022-12-04T23:34:33.677Z,100829.59
2022-12-04T23:37:04.568Z,100832.91
2022-12-04T23:39:34.124Z,100829.53
2022-12-04T23:42:03.585Z,100820.81
2022-12-04T23:44:33.090Z,100826.09
2022-12-04T23:47:02.716Z,100828.59
2022-12-04T23:49:32.288Z,100832.09
2022-12-04T23:52:02.008Z,100821.50
2022-12-04T23:54:35.050Z,100817.28
2022-12-04T23:57:04.608Z,100824.16
2022-12-04T23:59:34.217Z,100820.94
